Time,TemperatureF,DewpointF,PressureIn,WindDirection,WindDirectionDegrees,WindSpeedMPH,WindSpeedGustMPH,Humidity,HourlyPrecipIn,Conditions,Clouds,dailyrainin,SoftwareType,DateUTC
2013-10-20 00:00:00,40.6,39.0,29.97,NE,46,0.0,0.0,94,0.00,,,0.06,Wunderground v.1.15,2013-10-20 04:00:00,
2013-10-20 00:01:00,40.5,38.9,29.97,NE,46,0.0,0.0,94,0.00,,,0.06,Wunderground v.1.15,2013-10-20 04:01:00,
2013-10-20 00:02:00,40.5,38.9,29.97,NE,46,0.0,0.0,94,0.00,,,0.06,Wunderground v.1.15,2013-10-20 04:02:00,
2013-10-20 00:03:00,40.5,38.9,29.97,NE,46,0.0,0.0,94,0.00,,,0.06,Wunderground v.1.15,2013-10-20 04:03:00,
2013-10-20 00:08:00,40.4,38.8,29.97,NE,46,0.0,0.0,94,0.00,,,0.06,Wunderground v.1.15,2013-10-20 04:08:00,
2013-10-20 00:11:00,40.4,38.8,29.97,South,175,0.0,2.0,94,0.00,,,0.00,Wunderground v.1.15,2013-10-20 04:11:00,
2013-10-20 00:12:00,40.5,38.9,29.97,South,175,0.0,2.0,94,0.00,,,0.00,Wunderground v.1.15,2013-10-20 04:12:00,
2013-10-20 00:17:00,40.4,38.8,29.97,South,175,0.0,2.0,94,0.00,,,0.00,Wunderground v.1.15,2013-10-20 04:17:00,
2013-10-20 00:23:00,40.3,38.7,29.97,South,175,0.0,0.0,94,0.00,,,0.00,Wunderground v.1.15,2013-10-20 04:23:00,
2013-10-20 00:28:00,40.2,38.6,29.97,South,175,0.0,0.0,94,0.00,,,0.00,Wunderground v.1.15,2013-10-20 04:28:00,
2013-10-20 00:33:00,40.2,38.6,29.97,South,175,0.0,0.0,94,0.00,,,0.00,Wunderground v.1.15,2013-10-20 04:33:00,
2013-10-20 00:39:00,40.1,38.5,29.97,ESE,115,0.0,0.0,94,0.00,,,0.00,Wunderground v.1.15,2013-10-20 04:39:00,
2013-10-20 00:44:00,40.2,38.9,29.97,ESE,115,0.0,0.0,95,0.00,,,0.00,Wunderground v.1.15,2013-10-20 04:44:00,
2013-10-20 00:49:00,40.1,38.8,29.97,ESE,115,0.0,0.0,95,0.00,,,0.00,Wunderground v.1.15,2013-10-20 04:49:00,
2013-10-20 00:55:00,40.1,38.8,29.97,ESE,115,0.0,0.0,95,0.00,,,0.00,Wunderground v.1.15,2013-10-20 04:55:00,
2013-10-20 01:00:00,40.0,38.7,29.97,ESE,115,0.0,0.0,95,0.00,,,0.00,Wunderground v.1.15,2013-10-20 05:00:00,
2013-10-20 01:06:00,40.0,38.4,29.97,ESE,115,0.0,0.0,94,0.00,,,0.00,Wunderground v.1.15,2013-10-20 05:06:00,
2013-10-20 01:12:00,39.9,38.6,29.97,ESE,115,0.0,0.0,95,0.00,,,0.00,Wunderground v.1.15,2013-10-20 05:12:00,
2013-10-20 01:17:00,39.9,38.6,29.97,ESE,115,0.0,0.0,95,0.00,,,0.00,Wunderground v.1.15,2013-10-20 05:17:00,
2013-10-20 01:23:00,39.8,38.5,29.97,ESE,115,0.0,0.0,95,0.00,,,0.00,Wunderground v.1.15,2013-10-20 05:23:00,
2013-10-20 01:28:00,39.8,38.5,29.97,ESE,115,0.0,0.0,95,0.00,,,0.00,Wunderground v.1.15,2013-10-20 05:28:00,
2013-10-20 01:34:00,39.7,38.4,29.97,ESE,115,0.0,0.0,95,0.00,,,0.00,Wunderground v.1.15,2013-10-20 05:34:00,
2013-10-20 01:39:00,39.6,38.3,29.97,ESE,115,0.0,0.0,95,0.00,,,0.00,Wunderground v.1.15,2013-10-20 05:39:00,
2013-10-20 01:45:00,39.5,38.2,29.97,SE,128,0.0,1.0,95,0.00,,,0.00,Wunderground v.1.15,2013-10-20 05:45:00,
2013-10-20 01:50:00,39.5,38.2,29.97,SE,128,0.0,0.0,95,0.00,,,0.00,Wunderground v.1.15,2013-10-20 05:50:00,
2013-10-20 01:55:00,39.5,38.2,29.98,SE,128,0.0,0.0,95,0.00,,,0.00,Wunderground v.1.15,2013-10-20 05:55:00,
2013-10-20 02:00:00,39.5,38.2,29.98,SE,128,0.0,0.0,95,0.00,,,0.00,Wunderground v.1.15,2013-10-20 06:00:00,
2013-10-20 02:06:00,39.5,38.2,29.98,SE,128,0.0,0.0,95,0.00,,,0.00,Wunderground v.1.15,2013-10-20 06:06:00,
2013-10-20 02:11:00,39.4,38.1,29.98,SE,128,0.0,1.0,95,0.00,,,0.00,Wunderground v.1.15,2013-10-20 06:11:00,
2013-10-20 02:16:00,39.4,38.1,29.98,SE,128,0.0,1.0,95,0.00,,,0.00,Wunderground v.1.15,2013-10-20 06:16:00,
2013-10-20 02:22:00,39.3,38.0,29.98,SE,128,0.0,0.0,95,0.00,,,0.00,Wunderground v.1.15,2013-10-20 06:22:00,
2013-10-20 02:27:00,39.3,38.0,29.98,SE,128,0.0,0.0,95,0.00,,,0.00,Wunderground v.1.15,2013-10-20 06:27:00,
2013-10-20 02:32:00,39.3,38.0,29.98,SE,128,0.0,0.0,95,0.00,,,0.00,Wunderground v.1.15,2013-10-20 06:32:00,
2013-10-20 02:38:00,39.4,38.1,29.98,SE,128,0.0,0.0,95,0.00,,,0.00,Wunderground v.1.15,2013-10-20 06:38:00,
2013-10-20 02:43:00,39.4,38.1,29.98,SE,128,0.0,0.0,95,0.00,,,0.00,Wunderground v.1.15,2013-10-20 06:43:00,
2013-10-20 02:48:00,39.4,38.1,29.98,SE,128,0.0,0.0,95,0.00,,,0.00,Wunderground v.1.15,2013-10-20 06:48:00,
2013-10-20 02:54:00,39.5,38.5,29.98,SE,128,0.0,0.0,96,0.00,,,0.00,Wunderground v.1.15,2013-10-20 06:54:00,
2013-10-20 02:59:00,39.6,38.6,29.98,ESE,117,0.0,2.0,96,0.00,,,0.00,Wunderground v.1.15,2013-10-20 06:59:00,
2013-10-20 03:05:00,39.7,38.7,29.98,ESE,106,0.0,0.0,96,0.00,,,0.00,Wunderground v.1.15,2013-10-20 07:05:00,
2013-10-20 03:10:00,39.7,38.7,29.99,ESE,106,0.0,0.0,96,0.00,,,0.00,Wunderground v.1.15,2013-10-20 07:10:00,
2013-10-20 03:15:00,39.7,38.4,29.99,ESE,106,0.0,0.0,95,0.00,,,0.00,Wunderground v.1.15,2013-10-20 07:15:00,
2013-10-20 03:21:00,39.7,38.4,29.98,ESE,106,0.0,0.0,95,0.00,,,0.00,Wunderground v.1.15,2013-10-20 07:21:00,
2013-10-20 03:26:00,39.7,38.4,29.98,ESE,106,0.0,0.0,95,0.00,,,0.00,Wunderground v.1.15,2013-10-20 07:26:00,
2013-10-20 03:32:00,39.6,38.3,29.98,ESE,104,0.0,0.0,95,0.00,,,0.00,Wunderground v.1.15,2013-10-20 07:32:00,
2013-10-20 03:37:00,39.6,38.3,29.98,ESE,104,0.0,0.0,95,0.00,,,0.00,Wunderground v.1.15,2013-10-20 07:37:00,
2013-10-20 03:42:00,39.6,38.3,29.98,ESE,103,0.0,0.0,95,0.00,,,0.00,Wunderground v.1.15,2013-10-20 07:42:00,
2013-10-20 03:47:00,39.5,38.2,29.98,ESE,103,0.0,0.0,95,0.00,,,0.00,Wunderground v.1.15,2013-10-20 07:47:00,
2013-10-20 03:53:00,39.4,38.1,29.98,NNE,27,0.0,0.0,95,0.00,,,0.00,Wunderground v.1.15,2013-10-20 07:53:00,
2013-10-20 03:58:00,39.3,38.0,29.98,NNE,27,0.0,0.0,95,0.00,,,0.00,Wunderground v.1.15,2013-10-20 07:58:00,
2013-10-20 04:03:00,39.1,37.8,29.98,NNE,27,0.0,0.0,95,0.00,,,0.00,Wunderground v.1.15,2013-10-20 08:03:00,
2013-10-20 04:08:00,39.1,37.8,29.98,NNE,27,0.0,0.0,95,0.00,,,0.00,Wunderground v.1.15,2013-10-20 08:08:00,
2013-10-20 04:14:00,39.0,37.7,29.98,NNE,27,0.0,0.0,95,0.00,,,0.00,Wunderground v.1.15,2013-10-20 08:14:00,
2013-10-20 04:19:00,39.0,37.7,29.98,NNE,27,0.0,0.0,95,0.00,,,0.00,Wunderground v.1.15,2013-10-20 08:19:00,
2013-10-20 04:24:00,38.9,37.6,29.98,NNE,27,0.0,0.0,95,0.00,,,0.00,Wunderground v.1.15,2013-10-20 08:24:00,
2013-10-20 04:30:00,38.9,37.6,29.99,NNE,27,0.0,0.0,95,0.00,,,0.00,Wunderground v.1.15,2013-10-20 08:30:00,
2013-10-20 04:35:00,38.8,37.5,29.99,NNE,27,0.0,0.0,95,0.00,,,0.00,Wunderground v.1.15,2013-10-20 08:35:00,
2013-10-20 04:41:00,38.8,37.5,29.99,NNE,27,0.0,0.0,95,0.00,,,0.00,Wunderground v.1.15,2013-10-20 08:41:00,
2013-10-20 04:46:00,38.7,37.4,29.99,NNE,27,0.0,0.0,95,0.00,,,0.00,Wunderground v.1.15,2013-10-20 08:46:00,
2013-10-20 04:52:00,38.8,37.8,29.99,NNW,331,0.0,0.0,96,0.00,,,0.00,Wunderground v.1.15,2013-10-20 08:52:00,
2013-10-20 04:57:00,38.9,37.9,29.99,NNW,331,0.0,0.0,96,0.00,,,0.00,Wunderground v.1.15,2013-10-20 08:57:00,
2013-10-20 05:02:00,38.9,37.9,29.98,NNE,28,0.0,0.0,96,0.00,,,0.00,Wunderground v.1.15,2013-10-20 09:02:00,
2013-10-20 05:08:00,38.8,37.5,29.99,NNE,28,0.0,0.0,95,0.00,,,0.00,Wunderground v.1.15,2013-10-20 09:08:00,
2013-10-20 05:13:00,38.8,37.5,29.99,NE,53,0.0,0.0,95,0.00,,,0.00,Wunderground v.1.15,2013-10-20 09:13:00,
2013-10-20 05:18:00,38.7,37.4,29.99,NE,53,0.0,0.0,95,0.00,,,0.00,Wunderground v.1.15,2013-10-20 09:18:00,
2013-10-20 05:24:00,38.5,37.2,29.99,NE,53,0.0,0.0,95,0.00,,,0.00,Wunderground v.1.15,2013-10-20 09:24:00,
2013-10-20 05:29:00,38.5,37.2,29.99,NE,53,0.0,0.0,95,0.00,,,0.00,Wunderground v.1.15,2013-10-20 09:29:00,
2013-10-20 05:34:00,38.4,37.1,29.99,NE,53,0.0,0.0,95,0.00,,,0.00,Wunderground v.1.15,2013-10-20 09:34:00,
2013-10-20 05:39:00,38.3,37.0,29.99,NE,53,0.0,0.0,95,0.00,,,0.00,Wunderground v.1.15,2013-10-20 09:39:00,
2013-10-20 05:44:00,38.2,36.9,29.99,NE,53,0.0,0.0,95,0.00,,,0.00,Wunderground v.1.15,2013-10-20 09:44:00,
2013-10-20 05:49:00,38.1,36.8,29.99,NE,53,0.0,0.0,95,0.00,,,0.00,Wunderground v.1.15,2013-10-20 09:49:00,
2013-10-20 05:54:00,38.1,36.8,29.99,NE,53,0.0,0.0,95,0.00,,,0.00,Wunderground v.1.15,2013-10-20 09:54:00,
2013-10-20 05:59:00,38.1,36.8,30.00,NE,53,0.0,0.0,95,0.00,,,0.00,Wunderground v.1.15,2013-10-20 09:59:00,
2013-10-20 06:05:00,38.0,36.7,30.00,NE,53,0.0,0.0,95,0.00,,,0.00,Wunderground v.1.15,2013-10-20 10:05:00,
2013-10-20 06:11:00,37.9,36.6,30.00,NE,53,0.0,0.0,95,0.00,,,0.00,Wunderground v.1.15,2013-10-20 10:11:00,
2013-10-20 06:16:00,37.9,36.6,30.00,NE,53,0.0,0.0,95,0.00,,,0.00,Wunderground v.1.15,2013-10-20 10:16:00,
2013-10-20 06:22:00,37.9,36.6,30.00,NE,53,0.0,0.0,95,0.00,,,0.00,Wunderground v.1.15,2013-10-20 10:22:00,
2013-10-20 06:28:00,37.9,36.9,30.00,NE,53,0.0,0.0,96,0.00,,,0.00,Wunderground v.1.15,2013-10-20 10:28:00,
2013-10-20 06:33:00,37.9,36.9,30.00,NE,53,0.0,0.0,96,0.00,,,0.00,Wunderground v.1.15,2013-10-20 10:33:00,
2013-10-20 06:38:00,37.8,36.8,30.01,NE,53,0.0,0.0,96,0.00,,,0.00,Wunderground v.1.15,2013-10-20 10:38:00,
2013-10-20 06:43:00,37.8,36.8,30.01,NE,53,0.0,0.0,96,0.00,,,0.00,Wunderground v.1.15,2013-10-20 10:43:00,
2013-10-20 06:49:00,37.8,36.8,30.01,NE,53,0.0,0.0,96,0.00,,,0.00,Wunderground v.1.15,2013-10-20 10:49:00,
2013-10-20 06:54:00,37.7,36.7,30.01,NE,53,0.0,0.0,96,0.00,,,0.00,Wunderground v.1.15,2013-10-20 10:54:00,
2013-10-20 06:59:00,37.7,36.7,30.01,NE,53,0.0,0.0,96,0.00,,,0.00,Wunderground v.1.15,2013-10-20 10:59:00,
2013-10-20 07:05:00,37.7,36.7,30.01,NE,53,0.0,0.0,96,0.00,,,0.00,Wunderground v.1.15,2013-10-20 11:05:00,
2013-10-20 07:10:00,37.6,36.6,30.01,NE,53,0.0,0.0,96,0.00,,,0.00,Wunderground v.1.15,2013-10-20 11:10:00,
2013-10-20 07:15:00,37.6,36.6,30.01,NE,53,0.0,0.0,96,0.00,,,0.00,Wunderground v.1.15,2013-10-20 11:15:00,
2013-10-20 07:20:00,37.6,36.6,30.01,NE,53,0.0,0.0,96,0.00,,,0.00,Wunderground v.1.15,2013-10-20 11:20:00,
2013-10-20 07:26:00,37.6,36.6,30.02,NE,53,0.0,0.0,96,0.00,,,0.00,Wunderground v.1.15,2013-10-20 11:26:00,
2013-10-20 07:32:00,37.5,36.5,30.02,NE,53,0.0,0.0,96,0.00,,,0.00,Wunderground v.1.15,2013-10-20 11:32:00,
2013-10-20 07:38:00,37.4,36.4,30.02,NE,53,0.0,0.0,96,0.00,,,0.00,Wunderground v.1.15,2013-10-20 11:38:00,
2013-10-20 07:43:00,37.4,36.4,30.02,NE,53,0.0,0.0,96,0.00,,,0.00,Wunderground v.1.15,2013-10-20 11:43:00,
2013-10-20 07:48:00,37.3,36.3,30.02,NE,53,0.0,0.0,96,0.00,,,0.00,Wunderground v.1.15,2013-10-20 11:48:00,
2013-10-20 07:53:00,37.4,36.4,30.02,NE,53,0.0,0.0,96,0.00,,,0.00,Wunderground v.1.15,2013-10-20 11:53:00,
2013-10-20 07:58:00,37.4,36.4,30.02,NE,53,0.0,0.0,96,0.00,,,0.00,Wunderground v.1.15,2013-10-20 11:58:00,
2013-10-20 08:04:00,37.3,36.3,30.02,NE,53,0.0,0.0,96,0.00,,,0.00,Wunderground v.1.15,2013-10-20 12:04:00,
2013-10-20 08:09:00,37.3,36.3,30.03,NE,53,0.0,0.0,96,0.00,,,0.00,Wunderground v.1.15,2013-10-20 12:09:00,
2013-10-20 08:14:00,37.5,36.5,30.03,NE,53,0.0,0.0,96,0.00,,,0.00,Wunderground v.1.15,2013-10-20 12:14:00,
2013-10-20 08:19:00,37.9,36.9,30.03,NE,53,0.0,0.0,96,0.00,,,0.00,Wunderground v.1.15,2013-10-20 12:19:00,
2013-10-20 08:25:00,38.6,37.6,30.03,East,86,0.0,3.0,96,0.00,,,0.00,Wunderground v.1.15,2013-10-20 12:25:00,
2013-10-20 08:30:00,39.2,38.2,30.03,SE,134,0.0,0.0,96,0.00,,,0.00,Wunderground v.1.15,2013-10-20 12:30:00,
2013-10-20 08:35:00,39.7,38.7,30.03,SE,134,0.0,1.0,96,0.00,,,0.00,Wunderground v.1.15,2013-10-20 12:35:00,
2013-10-20 08:41:00,40.2,39.2,30.04,SE,133,0.0,0.0,96,0.00,,,0.00,Wunderground v.1.15,2013-10-20 12:41:00,
2013-10-20 08:47:00,40.7,39.6,30.04,SE,133,0.0,1.0,96,0.00,,,0.00,Wunderground v.1.15,2013-10-20 12:47:00,
2013-10-20 08:52:00,41.2,40.1,30.04,SE,133,0.0,2.0,96,0.00,,,0.00,Wunderground v.1.15,2013-10-20 12:52:00,
2013-10-20 08:57:00,41.6,40.3,30.04,SE,133,0.0,2.0,95,0.00,,,0.00,Wunderground v.1.15,2013-10-20 12:57:00,
2013-10-20 09:02:00,42.0,40.4,30.04,SE,144,1.0,1.0,94,0.00,,,0.00,Wunderground v.1.15,2013-10-20 13:02:00,
2013-10-20 09:08:00,42.5,40.6,30.05,WSW,250,0.0,1.0,93,0.00,,,0.00,Wunderground v.1.15,2013-10-20 13:08:00,
2013-10-20 09:13:00,43.1,40.9,30.05,ESE,107,0.0,0.0,92,0.00,,,0.00,Wunderground v.1.15,2013-10-20 13:13:00,
2013-10-20 09:19:00,44.0,41.3,30.05,ESE,107,0.0,2.0,90,0.00,,,0.00,Wunderground v.1.15,2013-10-20 13:19:00,
2013-10-20 09:25:00,44.7,41.1,30.05,ESE,117,1.0,3.0,87,0.00,,,0.00,Wunderground v.1.15,2013-10-20 13:25:00,
2013-10-20 09:30:00,45.1,41.2,30.05,East,97,1.0,1.0,86,0.00,,,0.00,Wunderground v.1.15,2013-10-20 13:30:00,
2013-10-20 09:35:00,45.6,41.7,30.05,East,101,0.0,1.0,86,0.00,,,0.00,Wunderground v.1.15,2013-10-20 13:35:00,
2013-10-20 09:41:00,46.2,41.9,30.05,SE,132,1.0,2.0,85,0.00,,,0.00,Wunderground v.1.15,2013-10-20 13:41:00,
2013-10-20 09:47:00,46.6,41.4,30.05,South,169,1.0,2.0,82,0.00,,,0.00,Wunderground v.1.15,2013-10-20 13:47:00,
2013-10-20 09:52:00,47.0,42.1,30.05,ESE,111,1.0,1.0,83,0.00,,,0.00,Wunderground v.1.15,2013-10-20 13:52:00,
2013-10-20 09:57:00,47.6,42.4,30.05,ESE,107,1.0,3.0,82,0.00,,,0.00,Wunderground v.1.15,2013-10-20 13:57:00,
2013-10-20 10:02:00,47.9,42.0,30.05,ESE,117,2.0,2.0,80,0.00,,,0.00,Wunderground v.1.15,2013-10-20 14:02:00,
2013-10-20 10:08:00,48.3,42.1,30.06,ESE,115,2.0,2.0,79,0.00,,,0.00,Wunderground v.1.15,2013-10-20 14:08:00,
2013-10-20 10:13:00,48.6,42.7,30.06,SSE,167,1.0,1.0,80,0.00,,,0.00,Wunderground v.1.15,2013-10-20 14:13:00,
2013-10-20 10:18:00,48.9,42.3,30.06,ESE,121,1.0,2.0,78,0.00,,,0.00,Wunderground v.1.15,2013-10-20 14:18:00,
2013-10-20 10:23:00,49.3,42.7,30.06,SSW,194,1.0,2.0,78,0.00,,,0.00,Wunderground v.1.15,2013-10-20 14:23:00,
2013-10-20 10:28:00,49.6,42.3,30.06,SE,134,1.0,2.0,76,0.00,,,0.00,Wunderground v.1.15,2013-10-20 14:28:00,
2013-10-20 10:34:00,50.0,42.4,30.06,ENE,60,1.0,2.0,75,0.00,,,0.00,Wunderground v.1.15,2013-10-20 14:34:00,
2013-10-20 10:39:00,50.4,42.8,30.05,ESE,110,1.0,3.0,75,0.00,,,0.00,Wunderground v.1.15,2013-10-20 14:39:00,
2013-10-20 10:44:00,50.8,42.8,30.05,ENE,70,1.0,2.0,74,0.00,,,0.00,Wunderground v.1.15,2013-10-20 14:44:00,
2013-10-20 10:49:00,51.2,42.5,30.05,ESE,108,1.0,5.0,72,0.00,,,0.00,Wunderground v.1.15,2013-10-20 14:49:00,
2013-10-20 10:55:00,51.6,43.2,30.05,NE,40,1.0,2.0,73,0.00,,,0.00,Wunderground v.1.15,2013-10-20 14:55:00,
2013-10-20 11:00:00,52.1,43.0,30.06,SE,129,1.0,1.0,71,0.00,,,0.00,Wunderground v.1.15,2013-10-20 15:00:00,
2013-10-20 11:06:00,52.4,42.9,30.05,SE,126,1.0,2.0,70,0.00,,,0.00,Wunderground v.1.15,2013-10-20 15:06:00,
2013-10-20 11:11:00,52.7,42.0,30.05,ENE,57,1.0,4.0,67,0.00,,,0.00,Wunderground v.1.15,2013-10-20 15:11:00,
2013-10-20 11:17:00,52.8,42.9,30.05,SE,142,1.0,4.0,69,0.00,,,0.00,Wunderground v.1.15,2013-10-20 15:17:00,
2013-10-20 11:22:00,53.2,42.9,30.05,ESE,107,1.0,2.0,68,0.00,,,0.00,Wunderground v.1.15,2013-10-20 15:22:00,
2013-10-20 11:27:00,53.6,43.3,30.05,East,94,1.0,3.0,68,0.00,,,0.00,Wunderground v.1.15,2013-10-20 15:27:00,
2013-10-20 11:33:00,54.0,43.3,30.05,East,99,1.0,1.0,67,0.00,,,0.00,Wunderground v.1.15,2013-10-20 15:33:00,
2013-10-20 11:38:00,54.2,42.3,30.05,SSE,154,1.0,3.0,64,0.00,,,0.00,Wunderground v.1.15,2013-10-20 15:38:00,
2013-10-20 11:43:00,54.5,42.2,30.05,SE,129,1.0,6.0,63,0.00,,,0.00,Wunderground v.1.15,2013-10-20 15:43:00,
2013-10-20 11:48:00,54.7,42.3,30.05,SSE,165,2.0,7.0,63,0.00,,,0.00,Wunderground v.1.15,2013-10-20 15:48:00,
2013-10-20 11:54:00,55.3,42.9,30.05,SSE,158,2.0,2.0,63,0.00,,,0.00,Wunderground v.1.15,2013-10-20 15:54:00,
2013-10-20 11:59:00,55.8,43.8,30.05,ENE,65,1.0,2.0,64,0.00,,,0.00,Wunderground v.1.15,2013-10-20 15:59:00,
2013-10-20 12:05:00,55.8,42.5,30.05,East,93,2.0,4.0,61,0.00,,,0.00,Wunderground v.1.15,2013-10-20 16:05:00,
2013-10-20 12:10:00,55.8,42.5,30.05,East,82,2.0,2.0,61,0.00,,,0.00,Wunderground v.1.15,2013-10-20 16:10:00,
2013-10-20 12:15:00,56.1,41.5,30.05,ENE,57,2.0,3.0,58,0.00,,,0.00,Wunderground v.1.15,2013-10-20 16:15:00,
2013-10-20 12:21:00,56.4,42.2,30.05,SE,145,2.0,2.0,59,0.00,,,0.00,Wunderground v.1.15,2013-10-20 16:21:00,
2013-10-20 12:27:00,56.7,41.6,30.05,SE,136,1.0,3.0,57,0.00,,,0.00,Wunderground v.1.15,2013-10-20 16:27:00,
2013-10-20 12:32:00,57.1,42.9,30.05,ESE,121,1.0,3.0,59,0.00,,,0.00,Wunderground v.1.15,2013-10-20 16:32:00,
2013-10-20 12:37:00,57.3,42.2,30.05,East,94,1.0,6.0,57,0.00,,,0.00,Wunderground v.1.15,2013-10-20 16:37:00,
2013-10-20 12:43:00,57.2,42.1,30.04,North,360,1.0,1.0,57,0.00,,,0.00,Wunderground v.1.15,2013-10-20 16:43:00,
2013-10-20 12:48:00,57.5,41.9,30.05,ESE,107,1.0,3.0,56,0.00,,,0.00,Wunderground v.1.15,2013-10-20 16:48:00,
2013-10-20 12:53:00,57.7,42.1,30.05,NNE,15,1.0,2.0,56,0.00,,,0.00,Wunderground v.1.15,2013-10-20 16:53:00,
2013-10-20 12:59:00,57.7,42.1,30.04,ENE,69,1.0,2.0,56,0.00,,,0.00,Wunderground v.1.15,2013-10-20 16:59:00,
2013-10-20 13:04:00,57.9,41.8,30.04,SE,133,2.0,5.0,55,0.00,,,0.00,Wunderground v.1.15,2013-10-20 17:04:00,
2013-10-20 13:09:00,58.2,42.6,30.04,ESE,118,2.0,5.0,56,0.00,,,0.00,Wunderground v.1.15,2013-10-20 17:09:00,
2013-10-20 13:15:00,58.2,40.6,30.04,ENE,71,1.0,5.0,52,0.00,,,0.00,Wunderground v.1.15,2013-10-20 17:15:00,
2013-10-20 13:20:00,58.1,40.6,30.04,East,96,2.0,2.0,52,0.00,,,0.00,Wunderground v.1.15,2013-10-20 17:20:00,
2013-10-20 13:25:00,58.0,40.5,30.04,ESE,114,2.0,4.0,52,0.00,,,0.00,Wunderground v.1.15,2013-10-20 17:25:00,
2013-10-20 13:30:00,58.2,40.1,30.03,ESE,111,2.0,2.0,51,0.00,,,0.00,Wunderground v.1.15,2013-10-20 17:30:00,
2013-10-20 13:36:00,58.5,41.4,30.03,East,96,1.0,2.0,53,0.00,,,0.00,Wunderground v.1.15,2013-10-20 17:36:00,
2013-10-20 13:41:00,58.6,41.0,30.03,ESE,105,1.0,3.0,52,0.00,,,0.00,Wunderground v.1.15,2013-10-20 17:41:00,
2013-10-20 13:47:00,58.5,41.4,30.02,SE,144,2.0,3.0,53,0.00,,,0.00,Wunderground v.1.15,2013-10-20 17:47:00,
2013-10-20 13:52:00,58.9,41.3,30.03,SSE,148,1.0,3.0,52,0.00,,,0.00,Wunderground v.1.15,2013-10-20 17:52:00,
2013-10-20 13:57:00,59.1,41.5,30.02,ENE,63,1.0,3.0,52,0.00,,,0.00,Wunderground v.1.15,2013-10-20 17:57:00,
2013-10-20 14:03:00,59.3,40.7,30.02,WSW,253,1.0,1.0,50,0.00,,,0.00,Wunderground v.1.15,2013-10-20 18:03:00,
2013-10-20 14:08:00,58.9,40.8,30.02,NNE,31,1.0,3.0,51,0.00,,,0.00,Wunderground v.1.15,2013-10-20 18:08:00,
2013-10-20 14:13:00,59.1,42.0,30.02,South,186,1.0,3.0,53,0.00,,,0.00,Wunderground v.1.15,2013-10-20 18:13:00,
2013-10-20 14:19:00,59.1,40.5,30.02,ENE,57,1.0,3.0,50,0.00,,,0.00,Wunderground v.1.15,2013-10-20 18:19:00,
2013-10-20 14:24:00,59.0,41.9,30.02,ESE,104,1.0,5.0,53,0.00,,,0.00,Wunderground v.1.15,2013-10-20 18:24:00,
2013-10-20 14:29:00,58.7,41.1,30.02,ENE,69,1.0,5.0,52,0.00,,,0.00,Wunderground v.1.15,2013-10-20 18:29:00,
2013-10-20 14:34:00,58.4,40.3,30.02,NNE,26,1.0,4.0,51,0.00,,,0.00,Wunderground v.1.15,2013-10-20 18:34:00,
2013-10-20 14:40:00,57.9,41.3,30.02,SW,215,1.0,1.0,54,0.00,,,0.00,Wunderground v.1.15,2013-10-20 18:40:00,
2013-10-20 14:45:00,57.6,40.1,30.02,ESE,107,1.0,3.0,52,0.00,,,0.00,Wunderground v.1.15,2013-10-20 18:45:00,
2013-10-20 14:50:00,57.8,42.2,30.02,NE,42,1.0,3.0,56,0.00,,,0.00,Wunderground v.1.15,2013-10-20 18:50:00,
2013-10-20 14:56:00,57.9,41.8,30.02,South,170,1.0,3.0,55,0.00,,,0.00,Wunderground v.1.15,2013-10-20 18:56:00,
2013-10-20 15:02:00,57.8,40.8,30.02,East,96,1.0,2.0,53,0.00,,,0.00,Wunderground v.1.15,2013-10-20 19:02:00,
2013-10-20 15:07:00,57.8,40.8,30.02,NNE,24,1.0,5.0,53,0.00,,,0.00,Wunderground v.1.15,2013-10-20 19:07:00,
2013-10-20 15:12:00,57.7,41.2,30.02,NNE,15,1.0,3.0,54,0.00,,,0.00,Wunderground v.1.15,2013-10-20 19:12:00,
2013-10-20 15:18:00,57.5,41.0,30.02,North,360,1.0,3.0,54,0.00,,,0.00,Wunderground v.1.15,2013-10-20 19:18:00,
2013-10-20 15:23:00,57.3,40.3,30.02,ESE,113,1.0,5.0,53,0.00,,,0.00,Wunderground v.1.15,2013-10-20 19:23:00,
2013-10-20 15:28:00,57.3,40.8,30.02,East,82,1.0,5.0,54,0.00,,,0.00,Wunderground v.1.15,2013-10-20 19:28:00,
2013-10-20 15:34:00,57.4,40.9,30.03,SE,126,1.0,1.0,54,0.00,,,0.00,Wunderground v.1.15,2013-10-20 19:34:00,
2013-10-20 15:39:00,57.1,41.1,30.02,SE,130,1.0,1.0,55,0.00,,,0.00,Wunderground v.1.15,2013-10-20 19:39:00,
2013-10-20 15:44:00,56.8,41.3,30.03,East,87,1.0,3.0,56,0.00,,,0.00,Wunderground v.1.15,2013-10-20 19:44:00,
2013-10-20 15:50:00,56.5,41.4,30.03,NE,48,1.0,1.0,57,0.00,,,0.00,Wunderground v.1.15,2013-10-20 19:50:00,
2013-10-20 15:55:00,56.5,41.0,30.03,ENE,60,0.0,2.0,56,0.00,,,0.00,Wunderground v.1.15,2013-10-20 19:55:00,
2013-10-20 16:00:00,56.5,40.5,30.02,SW,225,1.0,1.0,55,0.00,,,0.00,Wunderground v.1.15,2013-10-20 20:00:00,
2013-10-20 16:06:00,56.5,40.0,30.02,ESE,122,1.0,3.0,54,0.00,,,0.00,Wunderground v.1.15,2013-10-20 20:06:00,
2013-10-20 16:11:00,56.6,40.1,30.02,South,188,1.0,3.0,54,0.00,,,0.00,Wunderground v.1.15,2013-10-20 20:11:00,
2013-10-20 16:17:00,56.6,39.7,30.02,ESE,115,1.0,3.0,53,0.00,,,0.00,Wunderground v.1.15,2013-10-20 20:17:00,
2013-10-20 16:22:00,56.5,41.0,30.02,ESE,121,1.0,1.0,56,0.00,,,0.00,Wunderground v.1.15,2013-10-20 20:22:00,
2013-10-20 16:27:00,56.4,41.8,30.02,South,186,1.0,2.0,58,0.00,,,0.00,Wunderground v.1.15,2013-10-20 20:27:00,
2013-10-20 16:32:00,56.1,39.7,30.02,SSE,153,1.0,1.0,54,0.00,,,0.00,Wunderground v.1.15,2013-10-20 20:32:00,
2013-10-20 16:38:00,55.8,42.5,30.02,ENE,60,1.0,1.0,61,0.00,,,0.00,Wunderground v.1.15,2013-10-20 20:38:00,
2013-10-20 16:43:00,55.4,41.7,30.02,ESE,119,1.0,1.0,60,0.00,,,0.00,Wunderground v.1.15,2013-10-20 20:43:00,
2013-10-20 16:48:00,55.2,42.8,30.03,ENE,65,0.0,1.0,63,0.00,,,0.00,Wunderground v.1.15,2013-10-20 20:48:00,
2013-10-20 16:54:00,55.0,40.0,30.03,ESE,109,1.0,2.0,57,0.00,,,0.00,Wunderground v.1.15,2013-10-20 20:54:00,
2013-10-20 16:59:00,55.1,42.7,30.03,East,101,1.0,2.0,63,0.00,,,0.00,Wunderground v.1.15,2013-10-20 20:59:00,
2013-10-20 17:04:00,55.2,42.8,30.03,East,88,0.0,1.0,63,0.00,,,0.00,Wunderground v.1.15,2013-10-20 21:04:00,
2013-10-20 17:09:00,55.4,43.4,30.03,SE,128,0.0,1.0,64,0.00,,,0.00,Wunderground v.1.15,2013-10-20 21:09:00,
2013-10-20 17:14:00,55.4,43.8,30.03,NE,48,0.0,0.0,65,0.00,,,0.00,Wunderground v.1.15,2013-10-20 21:14:00,
2013-10-20 17:19:00,55.4,44.2,30.03,NE,56,0.0,1.0,66,0.00,,,0.00,Wunderground v.1.15,2013-10-20 21:19:00,
2013-10-20 17:25:00,55.4,43.0,30.03,East,81,0.0,1.0,63,0.00,,,0.00,Wunderground v.1.15,2013-10-20 21:25:00,
2013-10-20 17:30:00,55.3,44.5,30.03,SSW,192,0.0,0.0,67,0.00,,,0.00,Wunderground v.1.15,2013-10-20 21:30:00,
2013-10-20 17:35:00,55.0,43.0,30.03,SSW,192,0.0,0.0,64,0.00,,,0.00,Wunderground v.1.15,2013-10-20 21:35:00,
2013-10-20 17:41:00,54.5,43.4,30.03,SSW,192,0.0,0.0,66,0.00,,,0.00,Wunderground v.1.15,2013-10-20 21:41:00,
2013-10-20 17:46:00,53.9,43.6,30.03,SSW,192,0.0,0.0,68,0.00,,,0.00,Wunderground v.1.15,2013-10-20 21:46:00,
2013-10-20 17:52:00,53.4,43.1,30.03,NE,44,0.0,0.0,68,0.00,,,0.00,Wunderground v.1.15,2013-10-20 21:52:00,
2013-10-20 17:57:00,53.0,42.3,30.03,NE,44,0.0,1.0,67,0.00,,,0.00,Wunderground v.1.15,2013-10-20 21:57:00,
2013-10-20 18:02:00,52.7,42.0,30.03,NNE,22,0.0,0.0,67,0.00,,,0.00,Wunderground v.1.15,2013-10-20 22:02:00,
2013-10-20 18:08:00,52.3,41.7,30.03,NNE,22,0.0,0.0,67,0.00,,,0.00,Wunderground v.1.15,2013-10-20 22:08:00,
2013-10-20 18:13:00,51.9,41.3,30.03,NNE,22,0.0,1.0,67,0.00,,,0.00,Wunderground v.1.15,2013-10-20 22:13:00,
2013-10-20 18:19:00,51.4,42.3,30.03,NNE,22,0.0,1.0,71,0.00,,,0.00,Wunderground v.1.15,2013-10-20 22:19:00,
2013-10-20 18:24:00,51.1,41.3,30.03,NNE,22,0.0,0.0,69,0.00,,,0.00,Wunderground v.1.15,2013-10-20 22:24:00,
2013-10-20 18:29:00,50.6,42.3,30.03,NNE,22,0.0,0.0,73,0.00,,,0.00,Wunderground v.1.15,2013-10-20 22:29:00,
2013-10-20 18:34:00,50.3,42.0,30.03,NNE,22,0.0,0.0,73,0.00,,,0.00,Wunderground v.1.15,2013-10-20 22:34:00,
2013-10-20 18:40:00,49.8,41.8,30.04,NNE,22,0.0,0.0,74,0.00,,,0.00,Wunderground v.1.15,2013-10-20 22:40:00,
2013-10-20 18:45:00,49.5,41.2,30.04,NNE,22,0.0,0.0,73,0.00,,,0.00,Wunderground v.1.15,2013-10-20 22:45:00,
2013-10-20 18:50:00,49.2,42.3,30.04,NNE,22,0.0,0.0,77,0.00,,,0.00,Wunderground v.1.15,2013-10-20 22:50:00,
2013-10-20 18:56:00,48.8,41.6,30.04,NNE,22,0.0,0.0,76,0.00,,,0.00,Wunderground v.1.15,2013-10-20 22:56:00,
2013-10-20 19:02:00,48.5,42.0,30.04,NNE,22,0.0,0.0,78,0.00,,,0.00,Wunderground v.1.15,2013-10-20 23:02:00,
2013-10-20 19:07:00,48.2,42.3,30.05,NNE,22,0.0,0.0,80,0.00,,,0.00,Wunderground v.1.15,2013-10-20 23:07:00,
2013-10-20 19:12:00,47.8,41.6,30.05,NNE,22,0.0,0.0,79,0.00,,,0.00,Wunderground v.1.15,2013-10-20 23:12:00,
2013-10-20 19:17:00,47.5,41.3,30.05,NNE,22,0.0,0.0,79,0.00,,,0.00,Wunderground v.1.15,2013-10-20 23:17:00,
2013-10-20 19:23:00,47.2,41.3,30.05,NNE,22,0.0,0.0,80,0.00,,,0.00,Wunderground v.1.15,2013-10-20 23:23:00,
2013-10-20 19:28:00,46.9,41.1,30.05,NNE,22,0.0,0.0,80,0.00,,,0.00,Wunderground v.1.15,2013-10-20 23:28:00,
2013-10-20 19:34:00,46.7,41.5,30.05,NNE,22,0.0,0.0,82,0.00,,,0.00,Wunderground v.1.15,2013-10-20 23:34:00,
2013-10-20 19:39:00,46.6,41.4,30.05,NNE,22,0.0,0.0,82,0.00,,,0.00,Wunderground v.1.15,2013-10-20 23:39:00,
2013-10-20 19:44:00,46.4,41.2,30.05,NNE,22,0.0,0.0,82,0.00,,,0.00,Wunderground v.1.15,2013-10-20 23:44:00,
2013-10-20 19:49:00,46.2,41.0,30.05,NNE,22,0.0,0.0,82,0.00,,,0.00,Wunderground v.1.15,2013-10-20 23:49:00,
2013-10-20 19:55:00,46.0,41.4,30.06,NNE,22,0.0,0.0,84,0.00,,,0.00,Wunderground v.1.15,2013-10-20 23:55:00,
2013-10-20 20:00:00,45.8,41.2,30.06,NNE,22,0.0,0.0,84,0.00,,,0.00,Wunderground v.1.15,2013-10-21 00:00:00,
2013-10-20 20:06:00,45.6,41.0,30.06,NNE,22,0.0,0.0,84,0.00,,,0.00,Wunderground v.1.15,2013-10-21 00:06:00,
2013-10-20 20:11:00,45.4,40.8,30.06,NNE,22,0.0,0.0,84,0.00,,,0.00,Wunderground v.1.15,2013-10-21 00:11:00,
2013-10-20 20:17:00,45.1,40.9,30.06,NNE,22,0.0,0.0,85,0.00,,,0.00,Wunderground v.1.15,2013-10-21 00:17:00,
2013-10-20 20:22:00,44.9,41.0,30.06,NNE,22,0.0,0.0,86,0.00,,,0.00,Wunderground v.1.15,2013-10-21 00:22:00,
2013-10-20 20:27:00,44.7,40.8,30.06,NNE,22,0.0,0.0,86,0.00,,,0.00,Wunderground v.1.15,2013-10-21 00:27:00,
2013-10-20 20:32:00,44.5,40.6,30.06,NNE,22,0.0,0.0,86,0.00,,,0.00,Wunderground v.1.15,2013-10-21 00:32:00,
2013-10-20 20:38:00,44.3,40.7,30.06,NNE,22,0.0,0.0,87,0.00,,,0.00,Wunderground v.1.15,2013-10-21 00:38:00,
2013-10-20 20:43:00,44.1,40.5,30.06,NNE,22,0.0,0.0,87,0.00,,,0.00,Wunderground v.1.15,2013-10-21 00:43:00,
2013-10-20 20:49:00,43.9,40.3,30.06,NNE,22,0.0,0.0,87,0.00,,,0.00,Wunderground v.1.15,2013-10-21 00:49:00,
2013-10-20 20:54:00,43.7,40.4,30.06,NNE,22,0.0,0.0,88,0.00,,,0.00,Wunderground v.1.15,2013-10-21 00:54:00,
2013-10-20 20:59:00,43.6,40.3,30.06,NNE,22,0.0,0.0,88,0.00,,,0.00,Wunderground v.1.15,2013-10-21 00:59:00,
2013-10-20 21:05:00,43.4,40.1,30.06,NNE,22,0.0,0.0,88,0.00,,,0.00,Wunderground v.1.15,2013-10-21 01:05:00,
2013-10-20 21:10:00,43.3,40.0,30.07,NNE,22,0.0,0.0,88,0.00,,,0.00,Wunderground v.1.15,2013-10-21 01:10:00,
2013-10-20 21:15:00,43.2,40.2,30.07,NNE,22,0.0,0.0,89,0.00,,,0.00,Wunderground v.1.15,2013-10-21 01:15:00,
2013-10-20 21:21:00,43.1,40.1,30.07,NNE,22,0.0,0.0,89,0.00,,,0.00,Wunderground v.1.15,2013-10-21 01:21:00,
2013-10-20 21:26:00,42.9,39.9,30.07,NNE,22,0.0,0.0,89,0.00,,,0.00,Wunderground v.1.15,2013-10-21 01:26:00,
2013-10-20 21:32:00,42.7,39.7,30.07,NNE,22,0.0,0.0,89,0.00,,,0.00,Wunderground v.1.15,2013-10-21 01:32:00,
2013-10-20 21:37:00,42.6,39.9,30.07,NNE,22,0.0,0.0,90,0.00,,,0.00,Wunderground v.1.15,2013-10-21 01:37:00,
2013-10-20 21:42:00,42.5,39.8,30.07,NNE,22,0.0,0.0,90,0.00,,,0.00,Wunderground v.1.15,2013-10-21 01:42:00,
2013-10-20 21:48:00,42.4,40.0,30.07,NNE,22,0.0,0.0,91,0.00,,,0.00,Wunderground v.1.15,2013-10-21 01:48:00,
2013-10-20 21:53:00,42.3,39.6,30.07,NNE,22,0.0,0.0,90,0.00,,,0.00,Wunderground v.1.15,2013-10-21 01:53:00,
2013-10-20 21:59:00,42.1,39.4,30.07,NNE,22,0.0,0.0,90,0.00,,,0.00,Wunderground v.1.15,2013-10-21 01:59:00,
2013-10-20 22:04:00,42.0,39.6,30.07,NNE,22,0.0,0.0,91,0.00,,,0.00,Wunderground v.1.15,2013-10-21 02:04:00,
2013-10-20 22:10:00,41.9,39.7,30.07,NNE,22,0.0,0.0,92,0.00,,,0.00,Wunderground v.1.15,2013-10-21 02:10:00,
2013-10-20 22:15:00,41.8,39.6,30.07,NNE,22,0.0,0.0,92,0.00,,,0.00,Wunderground v.1.15,2013-10-21 02:15:00,
2013-10-20 22:20:00,41.6,39.2,30.07,NNE,22,0.0,0.0,91,0.00,,,0.00,Wunderground v.1.15,2013-10-21 02:20:00,
2013-10-20 22:25:00,41.4,39.0,30.07,NNE,22,0.0,0.0,91,0.00,,,0.00,Wunderground v.1.15,2013-10-21 02:25:00,
2013-10-20 22:31:00,41.3,39.2,30.07,NNE,22,0.0,0.0,92,0.00,,,0.00,Wunderground v.1.15,2013-10-21 02:31:00,
2013-10-20 22:37:00,41.3,39.2,30.07,NNE,22,0.0,0.0,92,0.00,,,0.00,Wunderground v.1.15,2013-10-21 02:37:00,
2013-10-20 22:42:00,41.2,39.1,30.07,NNE,22,0.0,0.0,92,0.00,,,0.00,Wunderground v.1.15,2013-10-21 02:42:00,
2013-10-20 22:47:00,41.1,39.0,30.07,NNE,22,0.0,0.0,92,0.00,,,0.00,Wunderground v.1.15,2013-10-21 02:47:00,
2013-10-20 22:53:00,40.9,38.5,30.07,NNE,22,0.0,0.0,91,0.00,,,0.00,Wunderground v.1.15,2013-10-21 02:53:00,
2013-10-20 22:58:00,40.7,38.6,30.07,NNE,22,0.0,0.0,92,0.00,,,0.00,Wunderground v.1.15,2013-10-21 02:58:00,
2013-10-20 23:03:00,40.6,38.5,30.07,NNE,22,0.0,0.0,92,0.00,,,0.00,Wunderground v.1.15,2013-10-21 03:03:00,
2013-10-20 23:09:00,40.5,38.4,30.07,NNE,22,0.0,0.0,92,0.00,,,0.00,Wunderground v.1.15,2013-10-21 03:09:00,
2013-10-20 23:14:00,40.3,38.2,30.07,NNE,22,0.0,0.0,92,0.00,,,0.00,Wunderground v.1.15,2013-10-21 03:14:00,
2013-10-20 23:19:00,40.2,38.1,30.07,NNE,22,0.0,0.0,92,0.00,,,0.00,Wunderground v.1.15,2013-10-21 03:19:00,
2013-10-20 23:25:00,40.1,38.0,30.07,NNE,22,0.0,0.0,92,0.00,,,0.00,Wunderground v.1.15,2013-10-21 03:25:00,
2013-10-20 23:30:00,40.1,38.2,30.07,NNE,22,0.0,0.0,93,0.00,,,0.00,Wunderground v.1.15,2013-10-21 03:30:00,
2013-10-20 23:35:00,40.0,38.1,30.07,NNE,22,0.0,0.0,93,0.00,,,0.00,Wunderground v.1.15,2013-10-21 03:35:00,
2013-10-20 23:41:00,39.9,38.0,30.07,NNE,22,0.0,0.0,93,0.00,,,0.00,Wunderground v.1.15,2013-10-21 03:41:00,
2013-10-20 23:46:00,39.9,38.0,30.07,NNE,22,0.0,0.0,93,0.00,,,0.00,Wunderground v.1.15,2013-10-21 03:46:00,
2013-10-20 23:51:00,39.8,37.9,30.07,NNE,22,0.0,0.0,93,0.00,,,0.00,Wunderground v.1.15,2013-10-21 03:51:00,
2013-10-20 23:56:00,39.7,37.8,30.07,NNE,22,0.0,0.0,93,0.00,,,0.00,Wunderground v.1.15,2013-10-21 03:56:00,